Time,TemperatureF,DewpointF,PressureIn,WindDirection,WindDirectionDegrees,WindSpeedMPH,WindSpeedGustMPH,Humidity,HourlyPrecipIn,Conditions,Clouds,dailyrainin,SolarRadiationWatts/m^2,SoftwareType,DateUTC
2013-07-09 00:02:00,60.0,51.0,-100.00,NW,315,0.0,5.0,72,0.00,,,0.00,0.000000,,2013-07-09 07:02:00,
2013-07-09 00:11:00,60.0,52.0,-100.00,ENE,60,0.0,0.0,76,0.00,,,0.00,0.000000,,2013-07-09 07:11:00,
2013-07-09 00:43:00,60.0,52.0,-100.00,ENE,60,0.0,0.0,76,0.00,,,0.00,0.000000,,2013-07-09 07:43:00,
2013-07-09 00:53:00,60.0,52.0,-100.00,ENE,60,0.0,0.0,76,0.00,,,0.00,0.000000,,2013-07-09 07:53:00,
2013-07-09 01:01:00,60.0,52.0,-100.00,ENE,60,0.0,0.0,76,0.00,,,0.00,0.000000,,2013-07-09 08:01:00,
2013-07-09 01:11:00,57.0,51.0,-100.00,NE,41,0.0,5.0,81,0.00,,,0.00,0.000000,,2013-07-09 08:11:00,
2013-07-09 01:43:00,57.0,51.0,-100.00,NE,41,0.0,5.0,81,0.00,,,0.00,0.000000,,2013-07-09 08:43:00,
2013-07-09 01:52:00,57.0,51.0,-100.00,NE,41,0.0,5.0,81,0.00,,,0.00,0.000000,,2013-07-09 08:52:00,
2013-07-09 02:02:00,57.0,51.0,-100.00,NE,41,0.0,5.0,81,0.00,,,0.00,0.000000,,2013-07-09 09:02:00,
2013-07-09 02:11:00,57.0,52.0,-100.00,SE,143,0.0,2.0,83,0.00,,,0.00,0.000000,,2013-07-09 09:11:00,
2013-07-09 02:42:00,57.0,52.0,-100.00,SE,143,0.0,2.0,83,0.00,,,0.00,0.000000,,2013-07-09 09:42:00,
2013-07-09 02:53:00,57.0,52.0,-100.00,SE,143,0.0,2.0,83,0.00,,,0.00,0.000000,,2013-07-09 09:53:00,
2013-07-09 03:01:00,57.0,52.0,-100.00,SE,143,0.0,2.0,83,0.00,,,0.00,0.000000,,2013-07-09 10:01:00,
2013-07-09 03:11:00,58.0,54.0,-100.00,ENE,72,0.0,4.0,86,0.00,,,0.00,0.000000,,2013-07-09 10:11:00,
2013-07-09 03:42:00,58.0,54.0,-100.00,ENE,72,0.0,4.0,86,0.00,,,0.00,0.000000,,2013-07-09 10:42:00,
2013-07-09 03:52:00,58.0,54.0,-100.00,ENE,72,0.0,4.0,86,0.00,,,0.00,0.000000,,2013-07-09 10:52:00,
2013-07-09 04:01:00,58.0,54.0,-100.00,ENE,72,0.0,4.0,86,0.00,,,0.00,0.000000,,2013-07-09 11:01:00,
2013-07-09 04:11:00,58.0,54.0,-100.00,ENE,58,0.0,4.0,86,0.00,,,0.00,0.000000,,2013-07-09 11:11:00,
2013-07-09 04:42:00,58.0,54.0,-100.00,ENE,58,0.0,4.0,86,0.00,,,0.00,0.000000,,2013-07-09 11:42:00,
2013-07-09 04:53:00,58.0,54.0,-100.00,ENE,58,0.0,4.0,86,0.00,,,0.00,0.000000,,2013-07-09 11:53:00,
2013-07-09 05:01:00,58.0,54.0,-100.00,ENE,58,0.0,4.0,86,0.00,,,0.00,0.000000,,2013-07-09 12:01:00,
2013-07-09 05:11:00,57.0,53.0,-100.00,East,83,0.0,4.0,87,0.00,,,0.00,0.000000,,2013-07-09 12:11:00,
2013-07-09 05:43:00,57.0,53.0,-100.00,East,83,0.0,4.0,87,0.00,,,0.00,0.000000,,2013-07-09 12:43:00,
2013-07-09 05:52:00,57.0,53.0,-100.00,East,83,0.0,4.0,87,0.00,,,0.00,0.000000,,2013-07-09 12:52:00,
2013-07-09 06:01:00,57.0,53.0,-100.00,East,83,0.0,4.0,87,0.00,,,0.00,0.000000,,2013-07-09 13:01:00,
2013-07-09 06:11:00,57.0,53.0,-100.00,ENE,77,0.0,4.0,87,0.00,,,0.00,4.000000,,2013-07-09 13:11:00,
2013-07-09 06:43:00,57.0,53.0,-100.00,ENE,77,0.0,4.0,87,0.00,,,0.00,4.000000,,2013-07-09 13:43:00,
2013-07-09 06:53:00,57.0,53.0,-100.00,ENE,77,0.0,4.0,87,0.00,,,0.00,4.000000,,2013-07-09 13:53:00,
2013-07-09 07:01:00,57.0,53.0,-100.00,ENE,77,0.0,4.0,87,0.00,,,0.00,4.000000,,2013-07-09 14:01:00,
2013-07-09 07:11:00,57.0,52.0,-100.00,East,94,0.0,7.0,83,0.00,,,0.00,29.000000,,2013-07-09 14:11:00,
2013-07-09 07:43:00,57.0,52.0,-100.00,East,94,0.0,7.0,83,0.00,,,0.00,29.000000,,2013-07-09 14:43:00,
2013-07-09 07:53:00,57.0,52.0,-100.00,East,94,0.0,7.0,83,0.00,,,0.00,29.000000,,2013-07-09 14:53:00,
2013-07-09 08:01:00,57.0,52.0,-100.00,East,94,0.0,7.0,83,0.00,,,0.00,29.000000,,2013-07-09 15:01:00,
2013-07-09 08:11:00,64.0,54.0,-100.00,East,101,1.0,9.0,69,0.00,,,0.00,183.000000,,2013-07-09 15:11:00,
2013-07-09 08:43:00,64.0,54.0,-100.00,East,101,1.0,9.0,69,0.00,,,0.00,183.000000,,2013-07-09 15:43:00,
2013-07-09 08:52:00,64.0,54.0,-100.00,East,101,1.0,9.0,69,0.00,,,0.00,183.000000,,2013-07-09 15:52:00,
2013-07-09 09:01:00,64.0,54.0,-100.00,East,101,1.0,9.0,69,0.00,,,0.00,183.000000,,2013-07-09 16:01:00,
2013-07-09 09:11:00,67.0,54.0,-100.00,ESE,104,1.0,6.0,62,0.00,,,0.00,326.000000,,2013-07-09 16:11:00,
2013-07-09 09:43:00,67.0,54.0,-100.00,ESE,104,1.0,6.0,62,0.00,,,0.00,326.000000,,2013-07-09 16:43:00,
2013-07-09 09:53:00,67.0,54.0,-100.00,ESE,104,1.0,6.0,62,0.00,,,0.00,326.000000,,2013-07-09 16:53:00,
2013-07-09 10:02:00,67.0,54.0,-100.00,ESE,104,1.0,6.0,62,0.00,,,0.00,326.000000,,2013-07-09 17:02:00,
2013-07-09 10:11:00,73.0,56.0,-100.00,WSW,248,0.0,5.0,56,0.00,,,0.00,691.000000,,2013-07-09 17:11:00,
2013-07-09 10:45:00,73.0,56.0,-100.00,WSW,248,0.0,5.0,56,0.00,,,0.00,691.000000,,2013-07-09 17:45:00,
2013-07-09 10:53:00,73.0,56.0,-100.00,WSW,248,0.0,5.0,56,0.00,,,0.00,691.000000,,2013-07-09 17:53:00,
2013-07-09 11:01:00,73.0,56.0,-100.00,WSW,248,0.0,5.0,56,0.00,,,0.00,691.000000,,2013-07-09 18:01:00,
2013-07-09 11:11:00,79.0,59.0,-100.00,South,186,0.0,5.0,50,0.00,,,0.00,829.000000,,2013-07-09 18:11:00,
2013-07-09 11:43:00,79.0,59.0,-100.00,South,186,0.0,5.0,50,0.00,,,0.00,829.000000,,2013-07-09 18:43:00,
2013-07-09 11:52:00,79.0,59.0,-100.00,South,186,0.0,5.0,50,0.00,,,0.00,829.000000,,2013-07-09 18:52:00,
2013-07-09 12:01:00,79.0,59.0,-100.00,South,186,0.0,5.0,50,0.00,,,0.00,829.000000,,2013-07-09 19:01:00,
2013-07-09 12:11:00,80.0,58.0,-100.00,SSE,157,0.0,7.0,47,0.00,,,0.00,948.000000,,2013-07-09 19:11:00,
2013-07-09 12:42:00,80.0,58.0,-100.00,SSE,157,0.0,7.0,47,0.00,,,0.00,948.000000,,2013-07-09 19:42:00,
2013-07-09 12:52:00,80.0,58.0,-100.00,SSE,157,0.0,7.0,47,0.00,,,0.00,948.000000,,2013-07-09 19:52:00,
2013-07-09 13:01:00,80.0,58.0,-100.00,SSE,157,0.0,7.0,47,0.00,,,0.00,948.000000,,2013-07-09 20:01:00,
2013-07-09 13:11:00,83.0,60.0,-100.00,SE,144,1.0,10.0,46,0.00,,,0.00,1005.000000,,2013-07-09 20:11:00,
2013-07-09 13:43:00,83.0,60.0,-100.00,SE,144,1.0,10.0,46,0.00,,,0.00,1005.000000,,2013-07-09 20:43:00,
2013-07-09 13:52:00,83.0,60.0,-100.00,SE,144,1.0,10.0,46,0.00,,,0.00,1005.000000,,2013-07-09 20:52:00,
2013-07-09 14:01:00,83.0,60.0,-100.00,SE,144,1.0,10.0,46,0.00,,,0.00,1005.000000,,2013-07-09 21:01:00,
2013-07-09 14:11:00,84.0,61.0,-100.00,SSE,157,2.0,9.0,46,0.00,,,0.00,1009.000000,,2013-07-09 21:11:00,
2013-07-09 14:42:00,84.0,61.0,-100.00,SSE,157,2.0,9.0,46,0.00,,,0.00,1009.000000,,2013-07-09 21:42:00,
2013-07-09 14:52:00,84.0,61.0,-100.00,SSE,157,2.0,9.0,46,0.00,,,0.00,1009.000000,,2013-07-09 21:52:00,
2013-07-09 15:01:00,84.0,61.0,-100.00,SSE,157,2.0,9.0,46,0.00,,,0.00,1009.000000,,2013-07-09 22:01:00,
2013-07-09 15:11:00,83.0,59.0,-100.00,SSE,154,2.0,9.0,45,0.00,,,0.00,957.000000,,2013-07-09 22:11:00,
2013-07-09 15:42:00,83.0,59.0,-100.00,SSE,154,2.0,9.0,45,0.00,,,0.00,957.000000,,2013-07-09 22:42:00,
2013-07-09 15:53:00,83.0,59.0,-100.00,SSE,154,2.0,9.0,45,0.00,,,0.00,957.000000,,2013-07-09 22:53:00,
2013-07-09 16:01:00,83.0,59.0,-100.00,SSE,154,2.0,9.0,45,0.00,,,0.00,957.000000,,2013-07-09 23:01:00,
2013-07-09 16:11:00,84.0,59.0,-100.00,SSE,161,2.0,9.0,43,0.00,,,0.00,851.000000,,2013-07-09 23:11:00,
2013-07-09 16:43:00,84.0,59.0,-100.00,SSE,161,2.0,9.0,43,0.00,,,0.00,851.000000,,2013-07-09 23:43:00,
2013-07-09 16:53:00,84.0,59.0,-100.00,SSE,161,2.0,9.0,43,0.00,,,0.00,851.000000,,2013-07-09 23:53:00,
2013-07-09 17:01:00,84.0,59.0,-100.00,SSE,161,2.0,9.0,43,0.00,,,0.00,851.000000,,2013-07-10 00:01:00,
2013-07-09 17:11:00,79.0,58.0,-100.00,SSE,155,1.0,9.0,48,0.00,,,0.00,125.000000,,2013-07-10 00:11:00,
2013-07-09 17:43:00,79.0,58.0,-100.00,SSE,155,1.0,9.0,48,0.00,,,0.00,125.000000,,2013-07-10 00:43:00,
2013-07-09 17:52:00,79.0,58.0,-100.00,SSE,155,1.0,9.0,48,0.00,,,0.00,125.000000,,2013-07-10 00:52:00,
2013-07-09 18:01:00,79.0,58.0,-100.00,SSE,155,1.0,9.0,48,0.00,,,0.00,125.000000,,2013-07-10 01:01:00,
2013-07-09 18:11:00,76.0,56.0,-100.00,SSE,159,2.0,8.0,50,0.00,,,0.00,44.000000,,2013-07-10 01:11:00,
2013-07-09 18:43:00,76.0,56.0,-100.00,SSE,159,2.0,8.0,50,0.00,,,0.00,44.000000,,2013-07-10 01:43:00,
2013-07-09 18:53:00,76.0,56.0,-100.00,SSE,159,2.0,8.0,50,0.00,,,0.00,44.000000,,2013-07-10 01:53:00,
2013-07-09 19:01:00,76.0,56.0,-100.00,SSE,159,2.0,8.0,50,0.00,,,0.00,44.000000,,2013-07-10 02:01:00,
2013-07-09 19:11:00,73.0,54.0,-100.00,SE,125,1.0,7.0,51,0.00,,,0.00,31.000000,,2013-07-10 02:11:00,
2013-07-09 19:43:00,73.0,54.0,-100.00,SE,125,1.0,7.0,51,0.00,,,0.00,31.000000,,2013-07-10 02:43:00,
2013-07-09 19:53:00,73.0,54.0,-100.00,SE,125,1.0,7.0,51,0.00,,,0.00,31.000000,,2013-07-10 02:53:00,
2013-07-09 20:01:00,73.0,54.0,-100.00,SE,125,1.0,7.0,51,0.00,,,0.00,31.000000,,2013-07-10 03:01:00,
2013-07-09 20:11:00,73.0,50.0,-100.00,WNW,297,0.0,8.0,44,0.00,,,0.00,17.000000,,2013-07-10 03:11:00,
2013-07-09 20:43:00,73.0,50.0,-100.00,WNW,297,0.0,8.0,44,0.00,,,0.00,17.000000,,2013-07-10 03:43:00,
2013-07-09 20:52:00,73.0,50.0,-100.00,WNW,297,0.0,8.0,44,0.00,,,0.00,17.000000,,2013-07-10 03:52:00,
2013-07-09 21:01:00,73.0,50.0,-100.00,WNW,297,0.0,8.0,44,0.00,,,0.00,17.000000,,2013-07-10 04:01:00,
2013-07-09 21:11:00,70.0,51.0,-100.00,West,272,0.0,7.0,51,0.00,,,0.00,8.000000,,2013-07-10 04:11:00,
2013-07-09 21:33:00,70.0,51.0,-100.00,West,272,0.0,7.0,51,0.00,,,0.00,8.000000,,2013-07-10 04:33:00,
2013-07-09 21:43:00,70.0,51.0,-100.00,West,272,0.0,7.0,51,0.00,,,0.00,8.000000,,2013-07-10 04:43:00,
2013-07-09 21:52:00,70.0,51.0,-100.00,West,272,0.0,7.0,51,0.00,,,0.00,8.000000,,2013-07-10 04:52:00,
2013-07-09 22:02:00,70.0,51.0,-100.00,West,272,0.0,7.0,51,0.00,,,0.00,8.000000,,2013-07-10 05:02:00,
2013-07-09 22:11:00,66.0,53.0,-100.00,South,186,0.0,7.0,63,0.00,,,0.00,0.000000,,2013-07-10 05:11:00,
2013-07-09 22:32:00,66.0,53.0,-100.00,South,186,0.0,7.0,63,0.00,,,0.00,0.000000,,2013-07-10 05:32:00,
2013-07-09 22:42:00,66.0,53.0,-100.00,South,186,0.0,7.0,63,0.00,,,0.00,0.000000,,2013-07-10 05:42:00,
2013-07-09 22:53:00,66.0,53.0,-100.00,South,186,0.0,7.0,63,0.00,,,0.00,0.000000,,2013-07-10 05:53:00,
2013-07-09 23:01:00,66.0,53.0,-100.00,South,186,0.0,7.0,63,0.00,,,0.00,0.000000,,2013-07-10 06:01:00,
2013-07-09 23:11:00,63.0,51.0,-100.00,WNW,303,0.0,7.0,66,0.00,,,0.00,0.000000,,2013-07-10 06:11:00,
2013-07-09 23:42:00,63.0,51.0,-100.00,WNW,303,0.0,7.0,66,0.00,,,0.00,0.000000,,2013-07-10 06:42:00,
2013-07-09 23:52:00,63.0,51.0,-100.00,WNW,303,0.0,7.0,66,0.00,,,0.00,0.000000,,2013-07-10 06:52:00,